Time,TemperatureF,DewpointF,PressureIn,WindDirection,WindDirectionDegrees,WindSpeedMPH,WindSpeedGustMPH,Humidity,HourlyPrecipIn,Conditions,Clouds,dailyrainin,SoftwareType,DateUTC
2013-03-26 00:02:00,32.0,26.5,29.71,West,275,7.0,7.0,80,0.00,,,0.00,Wunderground v.1.15,2013-03-26 05:02:00,
2013-03-26 00:08:00,31.9,26.1,29.71,WNW,289,1.0,7.0,79,0.00,,,0.00,Wunderground v.1.15,2013-03-26 05:08:00,
2013-03-26 00:13:00,32.1,26.3,29.72,West,267,2.0,9.0,79,0.00,,,0.00,Wunderground v.1.15,2013-03-26 05:13:00,
2013-03-26 00:19:00,32.0,26.5,29.72,NW,306,0.0,9.0,80,0.00,,,0.00,Wunderground v.1.15,2013-03-26 05:19:00,
2013-03-26 00:24:00,-90.0,-92.9,29.72,WNW,289,0.0,4.0,80,0.00,,,0.00,Wunderground v.1.15,2013-03-26 05:24:00,
2013-03-26 00:30:00,32.0,26.2,29.72,WNW,285,2.0,3.0,79,0.00,,,0.00,Wunderground v.1.15,2013-03-26 05:30:00,
2013-03-26 00:35:00,32.0,-99.9,29.72,WNW,288,0.0,5.0,255,0.00,,,0.00,Wunderground v.1.15,2013-03-26 05:35:00,
2013-03-26 00:41:00,-90.0,-99.9,29.72,WNW,291,4.0,4.0,255,0.00,,,0.00,Wunderground v.1.15,2013-03-26 05:41:00,
2013-03-26 00:47:00,32.0,26.2,29.72,West,265,0.0,7.0,79,0.00,,,0.00,Wunderground v.1.15,2013-03-26 05:47:00,
2013-03-26 00:52:00,32.1,26.3,29.72,WNW,294,1.0,2.0,79,0.00,,,0.00,Wunderground v.1.15,2013-03-26 05:52:00,
2013-03-26 00:57:00,31.9,26.4,29.72,NW,306,7.0,7.0,80,0.00,,,0.00,Wunderground v.1.15,2013-03-26 05:57:00,
2013-03-26 01:03:00,32.1,26.0,29.73,West,266,0.0,5.0,78,0.00,,,0.00,Wunderground v.1.15,2013-03-26 06:03:00,
2013-03-26 01:09:00,32.0,26.2,29.73,WNW,290,5.0,8.0,79,0.00,,,0.00,Wunderground v.1.15,2013-03-26 06:09:00,
2013-03-26 01:14:00,31.9,26.4,29.73,WNW,283,6.0,6.0,80,0.00,,,0.00,Wunderground v.1.15,2013-03-26 06:14:00,
2013-03-26 01:20:00,31.9,26.4,29.73,WNW,289,0.0,2.0,80,0.00,,,0.00,Wunderground v.1.15,2013-03-26 06:20:00,
2013-03-26 01:27:00,31.8,26.0,29.72,WNW,303,0.0,7.0,79,0.00,,,0.00,Wunderground v.1.15,2013-03-26 06:27:00,
2013-03-26 01:33:00,31.9,26.1,29.72,WNW,296,0.0,5.0,79,0.00,,,0.00,Wunderground v.1.15,2013-03-26 06:33:00,
2013-03-26 01:38:00,31.9,26.1,29.72,WNW,292,1.0,5.0,79,0.00,,,0.00,Wunderground v.1.15,2013-03-26 06:38:00,
2013-03-26 01:44:00,32.0,25.6,29.73,West,270,4.0,8.0,77,0.00,,,0.00,Wunderground v.1.15,2013-03-26 06:44:00,
2013-03-26 01:50:00,31.8,26.3,29.73,WNW,298,4.0,4.0,80,0.00,,,0.00,Wunderground v.1.15,2013-03-26 06:50:00,
2013-03-26 01:55:00,31.8,26.0,29.73,WNW,283,2.0,4.0,79,0.00,,,0.00,Wunderground v.1.15,2013-03-26 06:55:00,
2013-03-26 02:00:00,31.6,26.4,29.74,WNW,302,1.0,2.0,81,0.00,,,0.00,Wunderground v.1.15,2013-03-26 07:00:00,
2013-03-26 02:05:00,31.6,26.1,29.74,WNW,290,4.0,6.0,80,0.00,,,0.00,Wunderground v.1.15,2013-03-26 07:05:00,
2013-03-26 02:10:00,31.5,26.3,29.74,West,265,0.0,2.0,81,0.00,,,0.00,Wunderground v.1.15,2013-03-26 07:10:00,
2013-03-26 02:15:00,31.4,26.2,29.74,West,268,0.0,6.0,81,0.00,,,0.00,Wunderground v.1.15,2013-03-26 07:15:00,
2013-03-26 02:20:00,31.4,26.2,29.73,West,269,2.0,4.0,81,0.00,,,0.00,Wunderground v.1.15,2013-03-26 07:20:00,
2013-03-26 02:25:00,31.3,26.1,29.73,WSW,257,2.0,6.0,81,0.00,,,0.00,Wunderground v.1.15,2013-03-26 07:25:00,
2013-03-26 02:30:00,31.2,26.0,29.73,West,273,0.0,2.0,81,0.00,,,0.00,Wunderground v.1.15,2013-03-26 07:30:00,
2013-03-26 02:35:00,31.2,26.0,29.73,West,265,2.0,6.0,81,0.00,,,0.00,Wunderground v.1.15,2013-03-26 07:35:00,
2013-03-26 02:40:00,31.2,26.0,29.73,West,259,2.0,3.0,81,0.00,,,0.00,Wunderground v.1.15,2013-03-26 07:40:00,
2013-03-26 02:45:00,31.2,26.0,29.73,WNW,287,2.0,6.0,81,0.00,,,0.00,Wunderground v.1.15,2013-03-26 07:45:00,
2013-03-26 02:50:00,31.2,26.0,29.73,West,279,0.0,2.0,81,0.00,,,0.00,Wunderground v.1.15,2013-03-26 07:50:00,
2013-03-26 02:55:00,31.2,26.0,29.73,West,266,3.0,8.0,81,0.00,,,0.00,Wunderground v.1.15,2013-03-26 07:55:00,
2013-03-26 03:00:00,31.2,26.0,29.73,West,279,0.0,2.0,81,0.00,,,0.00,Wunderground v.1.15,2013-03-26 08:00:00,
2013-03-26 03:05:00,31.1,26.0,29.73,WSW,248,0.0,6.0,81,0.00,,,0.00,Wunderground v.1.15,2013-03-26 08:05:00,
2013-03-26 03:10:00,31.1,26.0,29.73,West,276,1.0,2.0,81,0.00,,,0.00,Wunderground v.1.15,2013-03-26 08:10:00,
2013-03-26 03:15:00,31.1,26.0,29.73,West,273,0.0,9.0,81,0.00,,,0.00,Wunderground v.1.15,2013-03-26 08:15:00,
2013-03-26 03:20:00,31.1,26.0,29.73,West,268,0.0,2.0,81,0.00,,,0.00,Wunderground v.1.15,2013-03-26 08:20:00,
2013-03-26 03:25:00,31.0,25.9,29.73,WNW,286,6.0,8.0,81,0.00,,,0.00,Wunderground v.1.15,2013-03-26 08:25:00,
2013-03-26 03:31:00,31.3,25.8,29.73,WNW,282,0.0,5.0,80,0.00,,,0.00,Wunderground v.1.15,2013-03-26 08:31:00,
2013-03-26 03:36:00,31.0,25.9,29.73,West,271,0.0,12.0,81,0.00,,,0.00,Wunderground v.1.15,2013-03-26 08:36:00,
2013-03-26 03:41:00,30.9,25.8,29.73,West,273,5.0,5.0,81,0.00,,,0.00,Wunderground v.1.15,2013-03-26 08:41:00,
2013-03-26 03:47:00,30.9,25.8,29.73,WNW,284,2.0,9.0,81,0.00,,,0.00,Wunderground v.1.15,2013-03-26 08:47:00,
2013-03-26 03:51:00,31.4,25.9,29.73,WNW,286,2.0,8.0,80,0.00,,,0.00,Wunderground v.1.15,2013-03-26 08:51:00,
2013-03-26 03:57:00,30.9,25.8,29.73,West,260,0.0,8.0,81,0.00,,,0.00,Wunderground v.1.15,2013-03-26 08:57:00,
2013-03-26 04:02:00,30.9,25.8,29.73,WNW,287,0.0,3.0,81,0.00,,,0.00,Wunderground v.1.15,2013-03-26 09:02:00,
2013-03-26 04:07:00,30.8,25.7,29.74,West,259,6.0,9.0,81,0.00,,,0.00,Wunderground v.1.15,2013-03-26 09:07:00,
2013-03-26 04:12:00,30.8,25.7,29.74,West,278,5.0,6.0,81,0.00,,,0.00,Wunderground v.1.15,2013-03-26 09:12:00,
2013-03-26 04:17:00,30.7,25.6,29.74,WNW,291,5.0,9.0,81,0.00,,,0.00,Wunderground v.1.15,2013-03-26 09:17:00,
2013-03-26 04:22:00,30.7,25.3,29.74,West,261,0.0,5.0,80,0.00,,,0.00,Wunderground v.1.15,2013-03-26 09:22:00,
2013-03-26 04:27:00,30.7,25.6,29.74,West,269,0.0,6.0,81,0.00,,,0.00,Wunderground v.1.15,2013-03-26 09:27:00,
2013-03-26 04:32:00,30.7,25.6,29.74,West,276,5.0,5.0,81,0.00,,,0.00,Wunderground v.1.15,2013-03-26 09:32:00,
2013-03-26 04:37:00,30.6,25.5,29.74,NW,311,0.0,7.0,81,0.00,,,0.00,Wunderground v.1.15,2013-03-26 09:37:00,
2013-03-26 04:42:00,30.6,25.2,29.74,WNW,288,0.0,4.0,80,0.00,,,0.00,Wunderground v.1.15,2013-03-26 09:42:00,
2013-03-26 04:47:00,30.6,25.2,29.74,West,274,6.0,7.0,80,0.00,,,0.00,Wunderground v.1.15,2013-03-26 09:47:00,
2013-03-26 04:52:00,30.6,25.2,29.74,West,261,4.0,13.0,80,0.00,,,0.00,Wunderground v.1.15,2013-03-26 09:52:00,
2013-03-26 04:57:00,30.6,25.2,29.75,West,279,0.0,13.0,80,0.00,,,0.00,Wunderground v.1.15,2013-03-26 09:57:00,
2013-03-26 05:02:00,30.6,24.9,29.74,NW,308,5.0,7.0,79,0.00,,,0.00,Wunderground v.1.15,2013-03-26 10:02:00,
2013-03-26 05:07:00,30.6,24.9,29.74,WNW,290,0.0,8.0,79,0.00,,,0.00,Wunderground v.1.15,2013-03-26 10:07:00,
2013-03-26 05:12:00,30.4,25.0,29.74,WNW,297,2.0,9.0,80,0.00,,,0.00,Wunderground v.1.15,2013-03-26 10:12:00,
2013-03-26 05:17:00,30.3,24.9,29.75,WSW,257,1.0,9.0,80,0.00,,,0.00,Wunderground v.1.15,2013-03-26 10:17:00,
2013-03-26 05:22:00,30.3,24.9,29.74,NW,319,9.0,9.0,80,0.00,,,0.00,Wunderground v.1.15,2013-03-26 10:22:00,
2013-03-26 05:27:00,30.2,24.8,29.74,WNW,285,1.0,13.0,80,0.00,,,0.00,Wunderground v.1.15,2013-03-26 10:27:00,
2013-03-26 05:32:00,30.2,25.1,29.75,WNW,303,7.0,9.0,81,0.00,,,0.00,Wunderground v.1.15,2013-03-26 10:32:00,
2013-03-26 05:37:00,30.1,25.0,29.75,WSW,252,2.0,9.0,81,0.00,,,0.00,Wunderground v.1.15,2013-03-26 10:37:00,
2013-03-26 05:42:00,30.1,25.0,29.75,WNW,293,4.0,11.0,81,0.00,,,0.00,Wunderground v.1.15,2013-03-26 10:42:00,
2013-03-26 05:48:00,30.1,25.0,29.75,WNW,286,4.0,12.0,81,0.00,,,0.00,Wunderground v.1.15,2013-03-26 10:48:00,
2013-03-26 05:53:00,30.1,25.0,29.75,West,281,4.0,5.0,81,0.00,,,0.00,Wunderground v.1.15,2013-03-26 10:53:00,
2013-03-26 05:58:00,30.1,25.3,29.75,WNW,300,2.0,12.0,82,0.00,,,0.00,Wunderground v.1.15,2013-03-26 10:58:00,
2013-03-26 06:03:00,30.1,25.0,29.75,West,259,0.0,9.0,81,0.00,,,0.00,Wunderground v.1.15,2013-03-26 11:03:00,
2013-03-26 06:08:00,30.1,25.3,29.75,NW,311,0.0,9.0,82,0.00,,,0.00,Wunderground v.1.15,2013-03-26 11:08:00,
2013-03-26 06:13:00,30.1,25.3,29.76,WNW,285,12.0,12.0,82,0.00,,,0.00,Wunderground v.1.15,2013-03-26 11:13:00,
2013-03-26 06:18:00,30.1,25.3,29.76,West,281,0.0,12.0,82,0.00,,,0.00,Wunderground v.1.15,2013-03-26 11:18:00,
2013-03-26 06:23:00,30.0,25.2,29.76,WNW,286,1.0,6.0,82,0.00,,,0.00,Wunderground v.1.15,2013-03-26 11:23:00,
2013-03-26 06:28:00,30.0,25.2,29.76,WNW,294,0.0,6.0,82,0.00,,,0.00,Wunderground v.1.15,2013-03-26 11:28:00,
2013-03-26 06:33:00,30.0,25.2,29.76,West,270,1.0,6.0,82,0.00,,,0.00,Wunderground v.1.15,2013-03-26 11:33:00,
2013-03-26 06:38:00,29.9,25.1,29.77,WNW,301,1.0,7.0,82,0.00,,,0.00,Wunderground v.1.15,2013-03-26 11:38:00,
2013-03-26 06:43:00,29.9,25.1,29.77,WNW,300,4.0,6.0,82,0.00,,,0.00,Wunderground v.1.15,2013-03-26 11:43:00,
2013-03-26 06:48:00,29.8,25.0,29.77,WNW,300,5.0,7.0,82,0.00,,,0.00,Wunderground v.1.15,2013-03-26 11:48:00,
2013-03-26 06:53:00,29.8,25.0,29.77,WNW,295,0.0,2.0,82,0.00,,,0.00,Wunderground v.1.15,2013-03-26 11:53:00,
2013-03-26 06:58:00,29.8,25.0,29.77,West,268,0.0,6.0,82,0.00,,,0.00,Wunderground v.1.15,2013-03-26 11:58:00,
2013-03-26 07:03:00,29.9,25.1,29.77,West,272,4.0,7.0,82,0.00,,,0.00,Wunderground v.1.15,2013-03-26 12:03:00,
2013-03-26 07:08:00,29.8,25.0,29.77,West,261,0.0,7.0,82,0.00,,,0.00,Wunderground v.1.15,2013-03-26 12:08:00,
2013-03-26 07:13:00,29.7,25.2,29.78,NW,306,1.0,7.0,83,0.00,,,0.00,Wunderground v.1.15,2013-03-26 12:13:00,
2013-03-26 07:18:00,29.6,25.1,29.78,WNW,286,2.0,7.0,83,0.00,,,0.00,Wunderground v.1.15,2013-03-26 12:18:00,
2013-03-26 07:23:00,29.5,25.0,29.78,West,281,2.0,7.0,83,0.00,,,0.00,Wunderground v.1.15,2013-03-26 12:23:00,
2013-03-26 07:28:00,29.4,24.9,29.78,WNW,286,0.0,7.0,83,0.00,,,0.00,Wunderground v.1.15,2013-03-26 12:28:00,
2013-03-26 07:33:00,29.3,24.8,29.79,WNW,286,0.0,2.0,83,0.00,,,0.00,Wunderground v.1.15,2013-03-26 12:33:00,
2013-03-26 07:38:00,29.2,24.7,29.79,WNW,282,0.0,4.0,83,0.00,,,0.00,Wunderground v.1.15,2013-03-26 12:38:00,
2013-03-26 07:43:00,29.2,24.7,29.79,West,272,0.0,4.0,83,0.00,,,0.00,Wunderground v.1.15,2013-03-26 12:43:00,
2013-03-26 07:48:00,29.5,25.0,29.79,West,265,0.0,6.0,83,0.00,,,0.00,Wunderground v.1.15,2013-03-26 12:48:00,
2013-03-26 07:53:00,29.2,24.7,29.79,West,273,7.0,7.0,83,0.00,,,0.00,Wunderground v.1.15,2013-03-26 12:53:00,
2013-03-26 07:58:00,29.2,24.7,29.80,WNW,282,5.0,7.0,83,0.00,,,0.00,Wunderground v.1.15,2013-03-26 12:58:00,
2013-03-26 08:03:00,29.2,24.7,29.80,West,267,2.0,5.0,83,0.00,,,0.00,Wunderground v.1.15,2013-03-26 13:03:00,
2013-03-26 08:08:00,29.3,24.5,29.80,West,277,4.0,7.0,82,0.00,,,0.00,Wunderground v.1.15,2013-03-26 13:08:00,
2013-03-26 08:13:00,29.4,24.6,29.80,NW,320,4.0,8.0,82,0.00,,,0.00,Wunderground v.1.15,2013-03-26 13:13:00,
2013-03-26 08:18:00,29.6,24.8,29.80,West,280,7.0,8.0,82,0.00,,,0.00,Wunderground v.1.15,2013-03-26 13:18:00,
2013-03-26 08:23:00,29.7,24.6,29.81,West,273,0.0,7.0,81,0.00,,,0.00,Wunderground v.1.15,2013-03-26 13:23:00,
2013-03-26 08:28:00,29.9,24.8,29.81,WSW,244,0.0,9.0,81,0.00,,,0.00,Wunderground v.1.15,2013-03-26 13:28:00,
2013-03-26 08:33:00,31.5,25.7,29.81,West,270,6.0,15.0,79,0.00,,,0.00,Wunderground v.1.15,2013-03-26 13:33:00,
2013-03-26 08:38:00,30.3,24.6,29.81,WNW,284,2.0,15.0,79,0.00,,,0.00,Wunderground v.1.15,2013-03-26 13:38:00,
2013-03-26 08:43:00,30.7,-99.9,29.81,West,275,2.0,8.0,255,0.00,,,0.00,Wunderground v.1.15,2013-03-26 13:43:00,
2013-03-26 08:48:00,30.7,25.0,29.81,WNW,286,1.0,13.0,79,0.00,,,0.00,Wunderground v.1.15,2013-03-26 13:48:00,
2013-03-26 08:53:00,31.0,25.2,29.81,WNW,288,6.0,8.0,79,0.00,,,0.00,Wunderground v.1.15,2013-03-26 13:53:00,
2013-03-26 08:58:00,31.2,25.1,29.81,NW,304,8.0,13.0,78,0.00,,,0.00,Wunderground v.1.15,2013-03-26 13:58:00,
2013-03-26 09:03:00,31.2,25.1,29.82,WNW,284,11.0,11.0,78,0.00,,,0.00,Wunderground v.1.15,2013-03-26 14:03:00,
2013-03-26 09:08:00,31.5,25.1,29.82,WNW,292,2.0,12.0,77,0.00,,,0.00,Wunderground v.1.15,2013-03-26 14:08:00,
2013-03-26 09:13:00,31.7,25.3,29.82,WSW,240,0.0,14.0,77,0.00,,,0.00,Wunderground v.1.15,2013-03-26 14:13:00,
2013-03-26 09:18:00,31.9,25.5,29.82,NW,305,1.0,14.0,77,0.00,,,0.00,Wunderground v.1.15,2013-03-26 14:18:00,
2013-03-26 09:23:00,32.1,25.7,29.82,NW,319,7.0,11.0,77,0.00,,,0.00,Wunderground v.1.15,2013-03-26 14:23:00,
2013-03-26 09:28:00,32.3,25.3,29.82,NW,307,16.0,16.0,75,0.00,,,0.00,Wunderground v.1.15,2013-03-26 14:28:00,
2013-03-26 09:33:00,32.4,-99.9,29.82,NW,304,8.0,11.0,255,0.00,,,0.01,Wunderground v.1.15,2013-03-26 14:33:00,
2013-03-26 09:38:00,32.1,25.1,29.83,NW,317,8.0,18.0,75,0.00,,,0.01,Wunderground v.1.15,2013-03-26 14:38:00,
2013-03-26 09:43:00,32.0,25.0,29.83,WNW,302,4.0,16.0,75,0.00,,,0.01,Wunderground v.1.15,2013-03-26 14:43:00,
2013-03-26 09:48:00,32.1,25.4,29.83,WNW,290,8.0,16.0,76,0.00,,,0.01,Wunderground v.1.15,2013-03-26 14:48:00,
2013-03-26 09:53:00,32.4,25.4,29.82,West,270,8.0,14.0,75,0.00,,,0.01,Wunderground v.1.15,2013-03-26 14:53:00,
2013-03-26 09:58:00,32.5,25.1,29.83,North,355,5.0,14.0,74,0.00,,,0.01,Wunderground v.1.15,2013-03-26 14:58:00,
2013-03-26 10:03:00,32.7,25.3,29.83,NW,320,4.0,9.0,74,0.00,,,0.01,Wunderground v.1.15,2013-03-26 15:03:00,
2013-03-26 10:08:00,32.9,25.5,29.83,NNW,327,7.0,9.0,74,0.00,,,0.01,Wunderground v.1.15,2013-03-26 15:08:00,
2013-03-26 10:13:00,-999.9,-99.9,29.83,WNW,292,5.0,9.0,73,0.00,,,0.01,Wunderground v.1.15,2013-03-26 15:13:00,
2013-03-26 10:18:00,35.6,28.1,29.83,WNW,298,2.0,10.0,74,0.00,,,0.01,Wunderground v.1.15,2013-03-26 15:18:00,
2013-03-26 10:23:00,33.7,25.6,29.83,West,277,2.0,12.0,72,0.00,,,0.01,Wunderground v.1.15,2013-03-26 15:23:00,
2013-03-26 10:28:00,34.1,-99.9,29.83,West,273,2.0,12.0,255,0.00,,,0.01,Wunderground v.1.15,2013-03-26 15:28:00,
2013-03-26 10:33:00,34.0,25.9,29.83,WSW,257,0.0,8.0,72,0.00,,,0.01,Wunderground v.1.15,2013-03-26 15:33:00,
2013-03-26 10:38:00,33.9,25.1,29.84,West,261,10.0,15.0,70,0.00,,,0.01,Wunderground v.1.15,2013-03-26 15:38:00,
2013-03-26 10:43:00,33.7,25.3,29.84,West,269,2.0,13.0,71,0.00,,,0.01,Wunderground v.1.15,2013-03-26 15:43:00,
2013-03-26 10:48:00,34.0,25.6,29.84,WNW,284,11.0,19.0,71,0.00,,,0.01,Wunderground v.1.15,2013-03-26 15:48:00,
2013-03-26 10:53:00,34.2,25.4,29.84,West,271,4.0,9.0,70,0.00,,,0.01,Wunderground v.1.15,2013-03-26 15:53:00,
2013-03-26 10:58:00,34.1,25.3,29.84,WSW,252,2.0,11.0,70,0.00,,,0.01,Wunderground v.1.15,2013-03-26 15:58:00,
2013-03-26 11:03:00,34.4,25.6,29.84,West,270,2.0,11.0,70,0.00,,,0.02,Wunderground v.1.15,2013-03-26 16:03:00,
2013-03-26 11:08:00,34.6,25.8,29.84,NW,315,6.0,11.0,70,0.00,,,0.02,Wunderground v.1.15,2013-03-26 16:08:00,
2013-03-26 11:13:00,34.6,25.5,29.84,West,279,7.0,12.0,69,0.00,,,0.02,Wunderground v.1.15,2013-03-26 16:13:00,
2013-03-26 11:18:00,34.8,25.7,29.84,WSW,252,10.0,13.0,69,0.00,,,0.02,Wunderground v.1.15,2013-03-26 16:18:00,
2013-03-26 11:23:00,35.1,26.6,29.84,West,279,1.0,11.0,71,0.00,,,0.02,Wunderground v.1.15,2013-03-26 16:23:00,
2013-03-26 11:28:00,35.2,26.0,29.84,West,259,3.0,11.0,69,0.00,,,0.02,Wunderground v.1.15,2013-03-26 16:28:00,
2013-03-26 11:33:00,35.3,26.5,29.84,NW,306,0.0,9.0,70,0.00,,,0.02,Wunderground v.1.15,2013-03-26 16:33:00,
2013-03-26 11:38:00,35.6,25.7,29.84,WSW,254,5.0,9.0,67,0.00,,,0.02,Wunderground v.1.15,2013-03-26 16:38:00,
2013-03-26 11:43:00,35.7,26.5,29.84,WSW,244,2.0,8.0,69,0.00,,,0.02,Wunderground v.1.15,2013-03-26 16:43:00,
2013-03-26 11:48:00,36.0,26.5,29.84,WNW,292,7.0,12.0,68,0.00,,,0.02,Wunderground v.1.15,2013-03-26 16:48:00,
2013-03-26 11:53:00,36.1,25.8,29.84,WSW,248,7.0,14.0,66,0.00,,,0.03,Wunderground v.1.15,2013-03-26 16:53:00,
2013-03-26 11:58:00,36.0,25.0,29.85,West,269,5.0,14.0,64,0.00,,,0.03,Wunderground v.1.15,2013-03-26 16:58:00,
2013-03-26 12:03:00,36.0,26.1,29.84,West,273,1.0,9.0,67,0.00,,,0.03,Wunderground v.1.15,2013-03-26 17:03:00,
2013-03-26 12:08:00,36.3,25.7,29.84,WNW,290,4.0,9.0,65,0.00,,,0.03,Wunderground v.1.15,2013-03-26 17:08:00,
2013-03-26 12:13:00,36.7,26.4,29.84,West,281,5.0,12.0,66,0.00,,,0.03,Wunderground v.1.15,2013-03-26 17:13:00,
2013-03-26 12:18:00,36.7,26.0,29.84,WSW,251,4.0,12.0,65,0.00,,,0.03,Wunderground v.1.15,2013-03-26 17:18:00,
2013-03-26 12:23:00,36.5,25.8,29.84,SSW,211,1.0,7.0,65,0.00,,,0.03,Wunderground v.1.15,2013-03-26 17:23:00,
2013-03-26 12:28:00,36.6,25.9,29.84,WSW,243,5.0,10.0,65,0.00,,,0.04,Wunderground v.1.15,2013-03-26 17:28:00,
2013-03-26 12:33:00,36.7,26.4,29.84,West,271,0.0,10.0,66,0.00,,,0.04,Wunderground v.1.15,2013-03-26 17:33:00,
2013-03-26 12:38:00,37.0,25.9,29.84,WSW,253,4.0,10.0,64,0.00,,,0.04,Wunderground v.1.15,2013-03-26 17:38:00,
2013-03-26 12:43:00,37.1,25.7,29.84,WSW,238,1.0,8.0,63,0.00,,,0.04,Wunderground v.1.15,2013-03-26 17:43:00,
2013-03-26 12:48:00,37.0,25.9,29.84,West,266,2.0,12.0,64,0.00,,,0.04,Wunderground v.1.15,2013-03-26 17:48:00,
2013-03-26 12:53:00,37.1,26.0,29.84,West,269,2.0,8.0,64,0.00,,,0.04,Wunderground v.1.15,2013-03-26 17:53:00,
2013-03-26 12:58:00,37.4,25.9,29.84,WSW,252,2.0,8.0,63,0.00,,,0.04,Wunderground v.1.15,2013-03-26 17:58:00,
2013-03-26 13:03:00,37.7,25.5,29.84,West,267,4.0,8.0,61,0.00,,,0.04,Wunderground v.1.15,2013-03-26 18:03:00,
2013-03-26 13:08:00,37.7,25.5,29.84,WNW,289,0.0,8.0,61,0.00,,,0.04,Wunderground v.1.15,2013-03-26 18:08:00,
2013-03-26 13:13:00,37.8,25.5,29.84,WSW,244,10.0,10.0,61,0.00,,,0.04,Wunderground v.1.15,2013-03-26 18:13:00,
2013-03-26 13:18:00,37.9,24.4,29.84,West,271,0.0,11.0,58,0.00,,,0.04,Wunderground v.1.15,2013-03-26 18:18:00,
2013-03-26 13:23:00,38.3,25.2,29.84,West,271,5.0,5.0,59,0.00,,,0.05,Wunderground v.1.15,2013-03-26 18:23:00,
2013-03-26 13:28:00,38.7,24.8,29.84,West,273,5.0,9.0,57,0.00,,,0.05,Wunderground v.1.15,2013-03-26 18:28:00,
2013-03-26 13:33:00,38.5,24.6,29.84,West,265,3.0,9.0,57,0.00,,,0.05,Wunderground v.1.15,2013-03-26 18:33:00,
2013-03-26 13:38:00,38.6,26.3,29.84,WSW,244,0.0,9.0,61,0.00,,,0.05,Wunderground v.1.15,2013-03-26 18:38:00,
2013-03-26 13:43:00,38.7,26.4,29.83,SW,229,0.0,7.0,61,0.00,,,0.05,Wunderground v.1.15,2013-03-26 18:43:00,
2013-03-26 13:48:00,38.8,26.5,29.83,West,279,8.0,9.0,61,0.00,,,0.05,Wunderground v.1.15,2013-03-26 18:48:00,
2013-03-26 13:53:00,38.8,26.5,29.83,West,275,5.0,14.0,61,0.00,,,0.05,Wunderground v.1.15,2013-03-26 18:53:00,
2013-03-26 13:58:00,38.7,26.0,29.83,WSW,241,4.0,14.0,60,0.00,,,0.05,Wunderground v.1.15,2013-03-26 18:58:00,
2013-03-26 14:03:00,38.6,26.3,29.83,WSW,250,11.0,11.0,61,0.00,,,0.05,Wunderground v.1.15,2013-03-26 19:03:00,
2013-03-26 14:08:00,38.8,26.5,29.83,West,275,8.0,15.0,61,0.00,,,0.05,Wunderground v.1.15,2013-03-26 19:08:00,
2013-03-26 14:13:00,38.8,26.9,29.83,WSW,237,4.0,6.0,62,0.00,,,0.06,Wunderground v.1.15,2013-03-26 19:13:00,
2013-03-26 14:18:00,39.4,26.7,29.83,WSW,252,3.0,7.0,60,0.00,,,0.06,Wunderground v.1.15,2013-03-26 19:18:00,
2013-03-26 14:23:00,39.5,26.8,29.83,SW,236,8.0,14.0,60,0.00,,,0.06,Wunderground v.1.15,2013-03-26 19:23:00,
2013-03-26 14:28:00,39.2,26.5,29.83,WSW,258,7.0,14.0,60,0.00,,,0.06,Wunderground v.1.15,2013-03-26 19:28:00,
2013-03-26 14:33:00,39.0,25.9,29.83,SW,225,4.0,8.0,59,0.00,,,0.06,Wunderground v.1.15,2013-03-26 19:33:00,
2013-03-26 14:38:00,39.1,26.0,29.83,WSW,252,0.0,13.0,59,0.00,,,0.06,Wunderground v.1.15,2013-03-26 19:38:00,
2013-03-26 14:43:00,39.3,26.2,29.83,SW,228,8.0,8.0,59,0.00,,,0.06,Wunderground v.1.15,2013-03-26 19:43:00,
2013-03-26 14:48:00,39.3,26.2,29.83,West,259,0.0,13.0,59,0.00,,,0.06,Wunderground v.1.15,2013-03-26 19:48:00,
2013-03-26 14:53:00,40.2,26.6,29.83,West,278,4.0,11.0,58,0.00,,,0.06,Wunderground v.1.15,2013-03-26 19:53:00,
2013-03-26 14:58:00,40.9,26.4,29.83,West,281,0.0,14.0,56,0.00,,,0.06,Wunderground v.1.15,2013-03-26 19:58:00,
2013-03-26 15:03:00,39.5,25.9,29.82,West,280,4.0,12.0,58,0.00,,,0.06,Wunderground v.1.15,2013-03-26 20:03:00,
2013-03-26 15:08:00,39.7,25.7,29.83,WSW,237,0.0,12.0,57,0.00,,,0.07,Wunderground v.1.15,2013-03-26 20:08:00,
2013-03-26 15:13:00,40.5,-99.9,29.83,WSW,257,0.0,8.0,255,0.00,,,0.07,Wunderground v.1.15,2013-03-26 20:13:00,
2013-03-26 15:18:00,40.0,25.1,29.83,West,267,8.0,11.0,55,0.00,,,0.07,Wunderground v.1.15,2013-03-26 20:18:00,
2013-03-26 15:23:00,39.9,25.5,29.83,SW,218,3.0,11.0,56,0.00,,,0.07,Wunderground v.1.15,2013-03-26 20:23:00,
2013-03-26 15:29:00,39.8,25.8,29.82,West,273,11.0,12.0,57,0.00,,,0.07,Wunderground v.1.15,2013-03-26 20:29:00,
2013-03-26 15:34:00,39.9,25.5,29.83,West,275,0.0,8.0,56,0.00,,,0.07,Wunderground v.1.15,2013-03-26 20:34:00,
2013-03-26 15:39:00,40.1,25.6,29.83,SSW,193,9.0,10.0,56,0.00,,,0.07,Wunderground v.1.15,2013-03-26 20:39:00,
2013-03-26 15:44:00,39.8,24.9,29.83,WSW,247,6.0,18.0,55,0.00,,,0.07,Wunderground v.1.15,2013-03-26 20:44:00,
2013-03-26 15:49:00,39.9,25.5,29.83,WSW,237,5.0,18.0,56,0.00,,,0.07,Wunderground v.1.15,2013-03-26 20:49:00,
2013-03-26 15:54:00,39.4,25.0,29.83,SW,234,3.0,12.0,56,0.00,,,0.07,Wunderground v.1.15,2013-03-26 20:54:00,
2013-03-26 15:59:00,39.3,25.3,29.83,West,263,5.0,12.0,57,0.00,,,0.07,Wunderground v.1.15,2013-03-26 20:59:00,
2013-03-26 16:04:00,39.6,25.2,29.82,WSW,246,3.0,12.0,56,0.00,,,0.07,Wunderground v.1.15,2013-03-26 21:04:00,
2013-03-26 16:09:00,39.8,24.9,29.83,SW,222,3.0,12.0,55,0.00,,,0.07,Wunderground v.1.15,2013-03-26 21:09:00,
2013-03-26 16:14:00,39.6,25.2,29.82,SW,215,3.0,12.0,56,0.00,,,0.07,Wunderground v.1.15,2013-03-26 21:14:00,
2013-03-26 16:19:00,39.6,25.2,29.82,West,263,0.0,12.0,56,0.00,,,0.07,Wunderground v.1.15,2013-03-26 21:19:00,
2013-03-26 16:24:00,39.6,25.6,29.83,WSW,241,1.0,10.0,57,0.00,,,0.07,Wunderground v.1.15,2013-03-26 21:24:00,
2013-03-26 16:29:00,39.3,25.7,29.82,West,259,0.0,12.0,58,0.00,,,0.07,Wunderground v.1.15,2013-03-26 21:29:00,
2013-03-26 16:34:00,39.3,25.3,29.83,West,280,4.0,12.0,57,0.00,,,0.07,Wunderground v.1.15,2013-03-26 21:34:00,
2013-03-26 16:39:00,39.4,25.8,29.82,WNW,300,8.0,12.0,58,0.00,,,0.08,Wunderground v.1.15,2013-03-26 21:39:00,
2013-03-26 16:44:00,39.4,25.8,29.82,West,277,0.0,8.0,58,0.00,,,0.08,Wunderground v.1.15,2013-03-26 21:44:00,
2013-03-26 16:49:00,39.3,25.3,29.82,WSW,247,5.0,12.0,57,0.00,,,0.08,Wunderground v.1.15,2013-03-26 21:49:00,
2013-03-26 16:54:00,39.2,25.6,29.82,WSW,245,3.0,11.0,58,0.00,,,0.08,Wunderground v.1.15,2013-03-26 21:54:00,
2013-03-26 16:59:00,39.1,25.1,29.82,SW,232,3.0,14.0,57,0.00,,,0.08,Wunderground v.1.15,2013-03-26 21:59:00,
2013-03-26 17:04:00,38.9,25.4,29.82,WSW,253,5.0,8.0,58,0.00,,,0.08,Wunderground v.1.15,2013-03-26 22:04:00,
2013-03-26 17:09:00,38.9,25.4,29.82,West,267,3.0,14.0,58,0.00,,,0.08,Wunderground v.1.15,2013-03-26 22:09:00,
2013-03-26 17:14:00,38.7,24.8,29.82,West,259,0.0,6.0,57,0.00,,,0.08,Wunderground v.1.15,2013-03-26 22:14:00,
2013-03-26 17:19:00,38.7,25.2,29.82,WSW,258,6.0,7.0,58,0.00,,,0.08,Wunderground v.1.15,2013-03-26 22:19:00,
2013-03-26 17:24:00,38.6,25.1,29.82,WNW,294,0.0,8.0,58,0.00,,,0.08,Wunderground v.1.15,2013-03-26 22:24:00,
2013-03-26 17:29:00,38.5,24.6,29.82,West,277,4.0,8.0,57,0.00,,,0.08,Wunderground v.1.15,2013-03-26 22:29:00,
2013-03-26 17:34:00,38.8,24.9,29.82,West,280,5.0,11.0,57,0.00,,,0.08,Wunderground v.1.15,2013-03-26 22:34:00,
2013-03-26 17:39:00,39.2,24.8,29.83,WSW,250,2.0,11.0,56,0.00,,,0.08,Wunderground v.1.15,2013-03-26 22:39:00,
2013-03-26 17:44:00,39.5,24.7,29.83,WSW,252,0.0,9.0,55,0.00,,,0.08,Wunderground v.1.15,2013-03-26 22:44:00,
2013-03-26 17:49:00,39.6,24.7,29.82,West,261,0.0,9.0,55,0.00,,,0.08,Wunderground v.1.15,2013-03-26 22:49:00,
2013-03-26 17:54:00,39.7,24.4,29.82,NW,312,0.0,6.0,54,0.00,,,0.08,Wunderground v.1.15,2013-03-26 22:54:00,
2013-03-26 17:59:00,39.7,24.0,29.82,WSW,240,3.0,11.0,53,0.00,,,0.08,Wunderground v.1.15,2013-03-26 22:59:00,
2013-03-26 18:04:00,39.6,23.9,29.83,WSW,240,0.0,12.0,53,0.00,,,0.08,Wunderground v.1.15,2013-03-26 23:04:00,
2013-03-26 18:09:00,39.5,23.8,29.82,WSW,239,1.0,12.0,53,0.00,,,0.08,Wunderground v.1.15,2013-03-26 23:09:00,
2013-03-26 18:14:00,39.4,24.1,29.83,WSW,242,3.0,7.0,54,0.00,,,0.08,Wunderground v.1.15,2013-03-26 23:14:00,
2013-03-26 18:19:00,39.5,23.8,29.83,WSW,257,1.0,7.0,53,0.00,,,0.08,Wunderground v.1.15,2013-03-26 23:19:00,
2013-03-26 18:24:00,39.6,23.9,29.83,West,269,0.0,7.0,53,0.00,,,0.08,Wunderground v.1.15,2013-03-26 23:24:00,
2013-03-26 18:29:00,39.1,23.4,29.83,WSW,254,4.0,11.0,53,0.00,,,0.08,Wunderground v.1.15,2013-03-26 23:29:00,
2013-03-26 18:34:00,38.7,23.0,29.83,SW,236,0.0,9.0,53,0.00,,,0.08,Wunderground v.1.15,2013-03-26 23:34:00,
2013-03-26 18:39:00,38.3,23.5,29.82,WNW,296,0.0,9.0,55,0.00,,,0.08,Wunderground v.1.15,2013-03-26 23:39:00,
2013-03-26 18:44:00,38.1,23.3,29.82,West,260,0.0,5.0,55,0.00,,,0.09,Wunderground v.1.15,2013-03-26 23:44:00,
2013-03-26 18:49:00,37.9,23.6,29.83,West,259,3.0,6.0,56,0.00,,,0.09,Wunderground v.1.15,2013-03-26 23:49:00,
2013-03-26 18:54:00,37.7,23.4,29.83,West,264,0.0,4.0,56,0.00,,,0.09,Wunderground v.1.15,2013-03-26 23:54:00,
2013-03-26 18:59:00,37.8,24.3,29.83,West,263,0.0,4.0,58,0.00,,,0.09,Wunderground v.1.15,2013-03-26 23:59:00,
2013-03-26 19:04:00,37.2,23.8,29.83,West,261,0.0,2.0,58,0.00,,,0.09,Wunderground v.1.15,2013-03-27 00:04:00,
2013-03-26 19:09:00,37.0,23.6,29.83,West,266,2.0,3.0,58,0.00,,,0.09,Wunderground v.1.15,2013-03-27 00:09:00,
2013-03-26 19:14:00,36.6,24.0,29.83,West,265,0.0,0.0,60,0.00,,,0.09,Wunderground v.1.15,2013-03-27 00:14:00,
2013-03-26 19:19:00,36.3,23.7,29.83,West,265,0.0,0.0,60,0.00,,,0.09,Wunderground v.1.15,2013-03-27 00:19:00,
2013-03-26 19:24:00,35.9,23.7,29.82,West,265,0.0,0.0,61,0.00,,,0.09,Wunderground v.1.15,2013-03-27 00:24:00,
2013-03-26 19:29:00,36.1,-99.9,29.82,West,265,0.0,0.0,255,0.00,,,0.09,Wunderground v.1.15,2013-03-27 00:29:00,
2013-03-26 19:34:00,-90.0,-95.9,29.82,West,265,0.0,0.0,63,0.00,,,0.09,Wunderground v.1.15,2013-03-27 00:34:00,
2013-03-26 19:39:00,35.2,23.9,29.82,West,265,0.0,0.0,63,0.00,,,0.09,Wunderground v.1.15,2013-03-27 00:39:00,
2013-03-26 19:44:00,35.0,23.7,29.82,West,265,0.0,0.0,63,0.00,,,0.09,Wunderground v.1.15,2013-03-27 00:44:00,
2013-03-26 19:49:00,34.8,23.9,29.83,West,265,0.0,0.0,64,0.00,,,0.09,Wunderground v.1.15,2013-03-27 00:49:00,
2013-03-26 19:54:00,34.2,23.7,29.83,West,265,0.0,0.0,65,0.00,,,0.09,Wunderground v.1.15,2013-03-27 00:54:00,
2013-03-26 19:59:00,34.0,23.5,29.83,West,265,0.0,0.0,65,0.00,,,0.09,Wunderground v.1.15,2013-03-27 00:59:00,
2013-03-26 20:04:00,33.7,23.5,29.83,West,265,0.0,0.0,66,0.00,,,0.09,Wunderground v.1.15,2013-03-27 01:04:00,
2013-03-26 20:09:00,33.5,23.4,29.83,West,265,0.0,0.0,66,0.00,,,0.09,Wunderground v.1.15,2013-03-27 01:09:00,
2013-03-26 20:14:00,33.4,23.6,29.83,West,265,0.0,0.0,67,0.00,,,0.09,Wunderground v.1.15,2013-03-27 01:14:00,
2013-03-26 20:19:00,33.2,23.8,29.83,West,265,0.0,0.0,68,0.00,,,0.09,Wunderground v.1.15,2013-03-27 01:19:00,
2013-03-26 20:24:00,32.9,23.5,29.83,West,265,0.0,0.0,68,0.00,,,0.09,Wunderground v.1.15,2013-03-27 01:24:00,
2013-03-26 20:29:00,32.8,23.4,29.83,West,265,0.0,0.0,68,0.00,,,0.09,Wunderground v.1.15,2013-03-27 01:29:00,
2013-03-26 20:34:00,32.7,23.3,29.83,West,261,0.0,0.0,68,0.00,,,0.09,Wunderground v.1.15,2013-03-27 01:34:00,
2013-03-26 20:39:00,32.6,23.6,29.83,West,259,0.0,1.0,69,0.00,,,0.09,Wunderground v.1.15,2013-03-27 01:39:00,
2013-03-26 20:44:00,32.7,23.6,29.83,West,259,0.0,0.0,69,0.00,,,0.09,Wunderground v.1.15,2013-03-27 01:44:00,
2013-03-26 20:49:00,32.8,23.0,29.83,West,259,0.0,0.0,67,0.00,,,0.09,Wunderground v.1.15,2013-03-27 01:49:00,
2013-03-26 20:54:00,33.2,24.1,29.84,WSW,254,0.0,2.0,69,0.00,,,0.09,Wunderground v.1.15,2013-03-27 01:54:00,
2013-03-26 20:59:00,-90.0,-94.5,29.83,WSW,253,0.0,2.0,70,0.00,,,0.09,Wunderground v.1.15,2013-03-27 01:59:00,
2013-03-26 21:04:00,32.1,23.4,29.83,WSW,247,0.0,2.0,70,0.00,,,0.09,Wunderground v.1.15,2013-03-27 02:04:00,
2013-03-26 21:09:00,31.8,23.5,29.83,WSW,247,0.0,2.0,71,0.00,,,0.09,Wunderground v.1.15,2013-03-27 02:09:00,
2013-03-26 21:14:00,31.7,23.4,29.84,WSW,247,0.0,0.0,71,0.00,,,0.09,Wunderground v.1.15,2013-03-27 02:14:00,
2013-03-26 21:19:00,31.6,23.6,29.84,WSW,246,0.0,1.0,72,0.00,,,0.09,Wunderground v.1.15,2013-03-27 02:19:00,
2013-03-26 21:24:00,31.5,23.5,29.84,WSW,246,0.0,0.0,72,0.00,,,0.09,Wunderground v.1.15,2013-03-27 02:24:00,
2013-03-26 21:30:00,31.5,23.5,29.84,WSW,246,0.0,0.0,72,0.00,,,0.09,Wunderground v.1.15,2013-03-27 02:30:00,
2013-03-26 21:35:00,31.4,23.4,29.84,WSW,244,0.0,0.0,72,0.00,,,0.09,Wunderground v.1.15,2013-03-27 02:35:00,
2013-03-26 21:40:00,31.3,23.6,29.84,SW,232,0.0,0.0,73,0.00,,,0.09,Wunderground v.1.15,2013-03-27 02:40:00,
2013-03-26 21:45:00,31.3,23.6,29.84,SW,229,0.0,2.0,73,0.00,,,0.09,Wunderground v.1.15,2013-03-27 02:45:00,
2013-03-26 21:50:00,31.2,23.5,29.84,SW,228,0.0,0.0,73,0.00,,,0.09,Wunderground v.1.15,2013-03-27 02:50:00,
2013-03-26 21:55:00,31.4,23.1,29.83,SW,228,0.0,0.0,71,0.00,,,0.09,Wunderground v.1.15,2013-03-27 02:55:00,
2013-03-26 22:00:00,31.1,23.1,29.84,SW,227,0.0,0.0,72,0.00,,,0.09,Wunderground v.1.15,2013-03-27 03:00:00,
2013-03-26 22:05:00,31.0,23.4,29.83,SW,227,0.0,0.0,73,0.00,,,0.09,Wunderground v.1.15,2013-03-27 03:05:00,
2013-03-26 22:10:00,31.1,23.1,29.83,SW,227,0.0,0.0,72,0.00,,,0.09,Wunderground v.1.15,2013-03-27 03:10:00,
2013-03-26 22:15:00,32.2,24.2,29.84,SW,226,1.0,2.0,72,0.00,,,0.09,Wunderground v.1.15,2013-03-27 03:15:00,
2013-03-26 22:20:00,30.8,23.2,29.84,SW,225,0.0,0.0,73,0.00,,,0.09,Wunderground v.1.15,2013-03-27 03:20:00,
2013-03-26 22:25:00,30.7,23.1,29.84,SW,221,0.0,2.0,73,0.00,,,0.09,Wunderground v.1.15,2013-03-27 03:25:00,
2013-03-26 22:30:00,30.6,23.0,29.84,SW,230,0.0,0.0,73,0.00,,,0.09,Wunderground v.1.15,2013-03-27 03:30:00,
2013-03-26 22:35:00,30.6,23.0,29.84,SW,219,0.0,3.0,73,0.00,,,0.09,Wunderground v.1.15,2013-03-27 03:35:00,
2013-03-26 22:40:00,30.6,22.6,29.84,SW,221,0.0,2.0,72,0.00,,,0.09,Wunderground v.1.15,2013-03-27 03:40:00,
2013-03-26 22:45:00,31.6,23.9,29.84,SW,219,0.0,2.0,73,0.00,,,0.09,Wunderground v.1.15,2013-03-27 03:45:00,
2013-03-26 22:50:00,30.7,22.4,29.84,SW,219,0.0,0.0,71,0.00,,,0.10,Wunderground v.1.15,2013-03-27 03:50:00,
2013-03-26 22:55:00,30.8,22.5,29.84,SW,218,0.0,2.0,71,0.00,,,0.10,Wunderground v.1.15,2013-03-27 03:55:00,
2013-03-26 23:00:00,30.7,22.7,29.84,SW,220,0.0,0.0,72,0.00,,,0.10,Wunderground v.1.15,2013-03-27 04:00:00,
2013-03-26 23:05:00,30.6,22.6,29.85,SW,220,0.0,1.0,72,0.00,,,0.10,Wunderground v.1.15,2013-03-27 04:05:00,
2013-03-26 23:10:00,30.6,22.6,29.85,SW,220,0.0,1.0,72,0.00,,,0.10,Wunderground v.1.15,2013-03-27 04:10:00,
2013-03-26 23:15:00,30.5,22.5,29.85,SW,215,0.0,2.0,72,0.00,,,0.10,Wunderground v.1.15,2013-03-27 04:15:00,
2013-03-26 23:20:00,30.5,22.5,29.85,SW,214,0.0,0.0,72,0.00,,,0.10,Wunderground v.1.15,2013-03-27 04:20:00,
2013-03-26 23:25:00,30.3,22.4,29.85,SSW,209,1.0,3.0,72,0.00,,,0.10,Wunderground v.1.15,2013-03-27 04:25:00,
2013-03-26 23:30:00,30.5,22.5,29.85,SW,216,0.0,3.0,72,0.00,,,0.10,Wunderground v.1.15,2013-03-27 04:30:00,
2013-03-26 23:35:00,30.4,22.4,29.85,SW,214,0.0,3.0,72,0.00,,,0.10,Wunderground v.1.15,2013-03-27 04:35:00,
2013-03-26 23:40:00,30.2,22.6,29.85,SW,217,0.0,0.0,73,0.00,,,0.10,Wunderground v.1.15,2013-03-27 04:40:00,
2013-03-26 23:45:00,30.0,22.4,29.85,SSW,212,3.0,3.0,73,0.00,,,0.10,Wunderground v.1.15,2013-03-27 04:45:00,
2013-03-26 23:50:00,29.9,22.3,29.85,SSW,211,0.0,0.0,73,0.00,,,0.10,Wunderground v.1.15,2013-03-27 04:50:00,
2013-03-26 23:55:00,29.9,22.3,29.85,SSW,212,0.0,2.0,73,0.00,,,0.10,Wunderground v.1.15,2013-03-27 04:55:00,